createdAt,value
2019-05-01T00:02:15.128Z,5.40
2019-05-01T00:04:51.157Z,5.36
2019-05-01T00:07:21.064Z,5.37
2019-05-01T00:09:49.319Z,5.35
2019-05-01T00:12:17.726Z,5.33
2019-05-01T00:14:45.962Z,5.33
2019-05-01T00:17:14.237Z,5.29
2019-05-01T00:19:42.501Z,5.23
2019-05-01T00:22:10.773Z,5.22
2019-05-01T00:24:39.023Z,5.27
2019-05-01T00:27:07.288Z,5.25
2019-05-01T00:29:35.539Z,5.26
2019-05-01T00:32:03.817Z,5.24
2019-05-01T00:34:32.069Z,5.23
2019-05-01T00:37:00.353Z,5.18
2019-05-01T00:39:28.771Z,5.17
2019-05-01T00:41:57.047Z,5.08
2019-05-01T00:44:25.364Z,4.96
2019-05-01T00:46:53.618Z,4.91
2019-05-01T00:49:21.885Z,4.81
2019-05-01T00:51:50.130Z,4.70
2019-05-01T00:54:18.399Z,4.51
2019-05-01T00:56:54.013Z,4.53
2019-05-01T00:59:26.810Z,4.59
2019-05-01T01:02:14.341Z,4.58
2019-05-01T01:04:42.600Z,4.49
2019-05-01T01:07:10.879Z,4.42
2019-05-01T01:09:39.126Z,4.49
2019-05-01T01:12:07.375Z,4.57
2019-05-01T01:14:35.651Z,4.55
2019-05-01T01:17:03.904Z,4.47
2019-05-01T01:19:32.182Z,4.42
2019-05-01T01:22:00.436Z,4.27
2019-05-01T01:24:28.709Z,4.21
2019-05-01T01:26:56.963Z,4.20
2019-05-01T01:29:25.232Z,4.19
2019-05-01T01:31:53.487Z,4.11
2019-05-01T01:34:21.771Z,4.13
2019-05-01T01:36:50.020Z,4.21
2019-05-01T01:39:18.287Z,4.29
2019-05-01T01:41:46.916Z,4.32
2019-05-01T01:44:16.833Z,4.24
2019-05-01T01:46:46.722Z,4.02
2019-05-01T01:49:15.164Z,3.86
2019-05-01T01:51:43.417Z,3.77
2019-05-01T01:54:11.699Z,3.89
2019-05-01T01:56:39.953Z,4.04
2019-05-01T01:59:08.223Z,4.01
2019-05-01T02:01:54.044Z,3.87
2019-05-01T02:07:03.154Z,3.30
2019-05-01T02:09:31.427Z,3.20
2019-05-01T02:11:59.673Z,3.23
2019-05-01T02:14:27.953Z,3.39
2019-05-01T02:16:56.211Z,3.41
2019-05-01T02:19:24.504Z,3.24
2019-05-01T02:21:52.731Z,3.13
2019-05-01T02:24:21.018Z,3.11
2019-05-01T02:26:53.829Z,3.16
2019-05-01T02:29:24.228Z,3.19
2019-05-01T02:31:53.127Z,3.27
2019-05-01T02:34:21.402Z,3.34
2019-05-01T02:36:51.087Z,3.33
2019-05-01T02:39:19.098Z,3.22
2019-05-01T02:41:47.358Z,3.14
2019-05-01T02:44:18.901Z,3.12
2019-05-01T02:46:48.003Z,3.03
2019-05-01T02:49:43.453Z,3.03
2019-05-01T02:52:12.042Z,3.12
2019-05-01T02:54:41.754Z,3.20
2019-05-01T02:57:14.628Z,3.23
2019-05-01T02:59:45.758Z,3.14
2019-05-01T03:02:14.015Z,3.15
2019-05-01T03:04:42.257Z,3.26
2019-05-01T03:07:10.529Z,3.30
2019-05-01T03:09:38.846Z,3.22
2019-05-01T03:12:07.118Z,3.13
2019-05-01T03:14:38.370Z,3.09
2019-05-01T03:17:08.297Z,3.09
2019-05-01T03:19:56.275Z,3.12
2019-05-01T03:22:28.903Z,3.09
2019-05-01T03:24:57.151Z,3.03
2019-05-01T03:27:25.420Z,2.97
2019-05-01T03:29:53.671Z,2.96
2019-05-01T03:32:21.949Z,2.97
2019-05-01T03:34:52.664Z,2.98
2019-05-01T03:37:20.219Z,2.99
2019-05-01T03:39:48.476Z,2.99
2019-05-01T03:42:16.740Z,3.05
2019-05-01T03:44:44.984Z,3.14
2019-05-01T03:47:13.266Z,3.13
2019-05-01T03:49:41.583Z,3.13
2019-05-01T03:52:09.859Z,3.00
2019-05-01T03:54:38.113Z,2.97
2019-05-01T03:57:06.392Z,3.00
2019-05-01T03:59:34.643Z,2.99
2019-05-01T04:02:32.232Z,2.97
2019-05-01T04:04:46.531Z,2.92
2019-05-01T04:07:14.801Z,2.82
2019-05-01T04:09:43.048Z,2.88
2019-05-01T04:12:11.350Z,2.89
2019-05-01T04:14:39.714Z,2.90
2019-05-01T04:17:09.611Z,2.88
2019-05-01T04:19:37.850Z,2.83
2019-05-01T04:22:13.097Z,2.78
2019-05-01T04:24:41.335Z,2.76
2019-05-01T04:27:11.247Z,2.76
2019-05-01T04:32:52.865Z,2.87
2019-05-01T04:35:16.916Z,2.81
2019-05-01T04:37:45.350Z,2.79
2019-05-01T04:40:13.622Z,2.74
2019-05-01T04:42:41.901Z,2.66
2019-05-01T04:45:10.221Z,2.65
2019-05-01T04:47:38.515Z,2.71
2019-05-01T04:50:06.841Z,2.77
2019-05-01T04:52:35.114Z,2.80
2019-05-01T04:55:04.402Z,2.80
2019-05-01T04:57:32.681Z,2.67
2019-05-01T05:00:00.929Z,2.60
2019-05-01T05:02:30.841Z,2.51
2019-05-01T05:04:59.086Z,2.59
2019-05-01T05:07:27.364Z,2.59
2019-05-01T05:09:55.613Z,2.67
2019-05-01T05:12:40.563Z,2.81
2019-05-01T05:15:10.453Z,2.89
2019-05-01T05:17:38.717Z,3.02
2019-05-01T05:20:07.239Z,3.15
2019-05-01T05:22:35.516Z,3.23
2019-05-01T05:25:04.809Z,3.33
2019-05-01T05:27:33.088Z,3.40
2019-05-01T05:30:01.335Z,3.43
2019-05-01T05:32:29.590Z,3.47
2019-05-01T05:34:57.941Z,3.48
2019-05-01T05:37:43.246Z,3.36
2019-05-01T05:40:11.502Z,3.39
2019-05-01T05:42:39.774Z,3.46
2019-05-01T05:45:08.033Z,3.53
2019-05-01T05:47:36.303Z,3.68
2019-05-01T05:50:06.481Z,3.76
2019-05-01T05:52:42.006Z,3.84
2019-05-01T05:55:14.953Z,3.88
2019-05-01T05:57:58.341Z,3.92
2019-05-01T06:00:44.314Z,4.02
2019-05-01T06:03:31.366Z,4.11
2019-05-01T06:06:09.199Z,4.12
2019-05-01T06:08:37.547Z,4.29
2019-05-01T06:11:07.451Z,4.43
2019-05-01T06:13:57.179Z,4.54
2019-05-01T06:16:46.788Z,4.61
2019-05-01T06:19:30.531Z,4.70
2019-05-01T06:22:18.445Z,4.66
2019-05-01T06:24:48.731Z,4.75
2019-05-01T06:27:17.055Z,4.82
2019-05-01T06:29:45.320Z,4.88
2019-05-01T06:32:13.574Z,4.92
2019-05-01T06:34:41.848Z,4.99
2019-05-01T06:37:10.144Z,5.05
2019-05-01T06:39:38.598Z,5.13
2019-05-01T06:42:09.866Z,5.23
2019-05-01T06:44:46.097Z,5.30
2019-05-01T06:47:19.055Z,5.48
2019-05-01T06:50:07.387Z,5.60
2019-05-01T06:52:35.901Z,5.67
2019-05-01T06:55:04.252Z,5.83
2019-05-01T06:57:32.494Z,5.93
2019-05-01T07:00:03.212Z,6.03
2019-05-01T07:02:34.917Z,6.14
2019-05-01T07:05:00.740Z,6.27
2019-05-01T07:07:28.999Z,6.34
2019-05-01T07:09:57.284Z,6.46
2019-05-01T07:12:28.253Z,6.55
2019-05-01T07:14:55.617Z,6.64
2019-05-01T07:17:23.859Z,6.77
2019-05-01T07:19:53.791Z,6.91
2019-05-01T07:22:22.117Z,6.96
2019-05-01T07:24:50.369Z,6.99
2019-05-01T07:27:23.164Z,7.13
2019-05-01T07:29:50.277Z,7.26
2019-05-01T07:32:18.733Z,7.33
2019-05-01T07:34:48.928Z,7.47
2019-05-01T07:37:20.850Z,7.60
2019-05-01T07:39:50.046Z,7.66
2019-05-01T07:42:30.498Z,7.70
2019-05-01T07:45:03.836Z,7.86
2019-05-01T07:47:38.359Z,7.99
2019-05-01T07:50:10.830Z,8.07
2019-05-01T07:52:39.388Z,8.22
2019-05-01T07:55:07.709Z,8.37
2019-05-01T07:57:39.350Z,8.46
2019-05-01T08:00:09.311Z,8.65
2019-05-01T08:02:37.598Z,8.76
2019-05-01T08:05:10.042Z,8.72
2019-05-01T08:07:36.530Z,8.85
2019-05-01T08:10:06.864Z,8.94
2019-05-01T08:12:35.139Z,8.98
2019-05-01T08:15:03.394Z,9.11
2019-05-01T08:17:33.319Z,9.24
2019-05-01T08:20:03.214Z,9.37
2019-05-01T08:22:37.153Z,9.52
2019-05-01T08:25:03.103Z,9.66
2019-05-01T08:27:39.307Z,9.84
2019-05-01T08:30:12.760Z,10.00
2019-05-01T08:32:52.636Z,10.16
2019-05-01T08:35:22.524Z,10.29
2019-05-01T08:37:53.910Z,10.25
2019-05-01T08:40:21.687Z,10.46
2019-05-01T08:42:50.135Z,10.50
2019-05-01T08:45:20.031Z,10.73
2019-05-01T08:47:56.671Z,10.82
2019-05-01T08:50:24.820Z,10.95
2019-05-01T08:52:52.862Z,11.05
2019-05-01T08:55:21.117Z,11.17
2019-05-01T08:57:49.463Z,11.48
2019-05-01T09:00:17.718Z,11.50
2019-05-01T09:02:46.001Z,11.45
2019-05-01T09:05:28.370Z,11.69
2019-05-01T09:07:44.348Z,11.62
2019-05-01T09:10:12.689Z,11.76
2019-05-01T09:12:42.614Z,11.84
2019-05-01T09:15:12.791Z,11.81
2019-05-01T09:17:40.945Z,11.79
2019-05-01T09:20:09.260Z,11.71
2019-05-01T09:22:37.623Z,11.91
2019-05-01T09:25:06.953Z,11.82
2019-05-01T09:27:36.868Z,12.02
2019-05-01T09:30:26.901Z,12.19
2019-05-01T09:32:55.567Z,12.36
2019-05-01T09:35:23.840Z,12.65
2019-05-01T09:37:52.124Z,12.76
2019-05-01T09:40:20.382Z,12.94
2019-05-01T09:42:48.663Z,13.16
2019-05-01T09:45:17.084Z,13.35
2019-05-01T09:47:45.428Z,13.60
2019-05-01T09:50:13.683Z,14.42
2019-05-01T09:53:00.846Z,16.66
2019-05-01T09:55:45.970Z,18.72
2019-05-01T09:58:14.254Z,19.88
2019-05-01T10:00:42.506Z,20.28
2019-05-01T10:03:13.168Z,18.59
2019-05-01T10:05:43.009Z,18.51
2019-05-01T10:08:10.782Z,19.93
2019-05-01T10:10:39.040Z,20.19
2019-05-01T10:13:07.326Z,21.31
2019-05-01T10:15:35.581Z,21.15
2019-05-01T10:18:03.925Z,21.26
2019-05-01T10:20:32.186Z,22.04
2019-05-01T10:23:00.472Z,20.05
2019-05-01T10:25:28.728Z,21.24
2019-05-01T10:28:01.223Z,21.90
2019-05-01T10:30:47.262Z,21.83
2019-05-01T10:33:22.782Z,21.43
2019-05-01T10:35:55.406Z,22.13
2019-05-01T10:38:23.696Z,22.74
2019-05-01T10:40:51.938Z,21.20
2019-05-01T10:43:20.214Z,20.26
2019-05-01T10:45:48.474Z,19.59
2019-05-01T10:48:16.761Z,20.11
2019-05-01T10:50:45.010Z,21.09
2019-05-01T10:53:13.286Z,21.70
2019-05-01T10:55:41.536Z,22.22
2019-05-01T10:58:12.672Z,22.78
2019-05-01T11:00:41.465Z,22.07
2019-05-01T11:03:09.776Z,21.01
2019-05-01T11:05:38.049Z,20.99
2019-05-01T11:08:06.308Z,21.63
2019-05-01T11:10:34.587Z,22.41
2019-05-01T11:13:02.984Z,22.40
2019-05-01T11:15:31.259Z,23.08
2019-05-01T11:17:59.532Z,23.29
2019-05-01T11:20:27.819Z,21.71
2019-05-01T11:22:56.074Z,21.28
2019-05-01T11:25:24.432Z,20.39
2019-05-01T11:27:52.683Z,21.67
2019-05-01T11:30:20.941Z,20.45
2019-05-01T11:32:56.597Z,20.42
2019-05-01T11:35:42.653Z,19.51
2019-05-01T11:38:12.539Z,19.37
2019-05-01T11:40:45.430Z,21.24
2019-05-01T11:43:13.697Z,20.32
2019-05-01T11:45:41.964Z,19.15
2019-05-01T11:48:10.219Z,20.41
2019-05-01T11:50:38.491Z,19.98
2019-05-01T11:53:07.658Z,20.59
2019-05-01T11:55:36.013Z,21.61
2019-05-01T11:58:04.266Z,20.15
2019-05-01T12:00:32.622Z,19.27
2019-05-01T12:03:00.875Z,20.56
2019-05-01T12:05:29.145Z,21.78
2019-05-01T12:07:57.411Z,20.53
2019-05-01T12:10:25.685Z,20.36
2019-05-01T12:12:54.002Z,20.72
2019-05-01T12:15:22.274Z,20.96
2019-05-01T12:17:51.305Z,20.36
2019-05-01T12:20:19.919Z,21.67
2019-05-01T12:22:51.219Z,21.49
2019-05-01T12:25:18.238Z,22.11
2019-05-01T12:27:46.558Z,22.11
2019-05-01T12:30:16.568Z,22.58
2019-05-01T12:32:44.819Z,20.85
2019-05-01T12:35:13.093Z,21.60
2019-05-01T12:37:42.115Z,21.85
2019-05-01T12:40:11.525Z,22.03
2019-05-01T12:42:39.772Z,23.31
2019-05-01T12:45:10.141Z,22.77
2019-05-01T12:47:42.431Z,23.22
2019-05-01T12:50:10.809Z,22.53
2019-05-01T12:52:46.541Z,21.49
2019-05-01T12:55:19.478Z,20.70
2019-05-01T12:57:47.724Z,22.04
2019-05-01T13:00:20.028Z,22.29
2019-05-01T13:02:48.298Z,22.53
2019-05-01T13:05:16.551Z,21.95
2019-05-01T13:07:44.823Z,22.27
2019-05-01T13:10:13.069Z,22.04
2019-05-01T13:12:41.343Z,20.92
2019-05-01T13:15:09.596Z,20.69
2019-05-01T13:17:37.871Z,19.89
2019-05-01T13:20:07.161Z,19.92
2019-05-01T13:22:35.431Z,18.95
2019-05-01T13:25:05.433Z,20.03
2019-05-01T13:27:35.356Z,20.08
2019-05-01T13:30:06.311Z,21.04
2019-05-01T13:32:38.639Z,21.20
2019-05-01T13:35:06.881Z,20.62
2019-05-01T13:37:35.149Z,20.50
2019-05-01T13:40:04.631Z,19.74
2019-05-01T13:42:32.279Z,20.17
2019-05-01T13:45:00.537Z,20.39
2019-05-01T13:47:28.811Z,20.80
2019-05-01T13:49:57.062Z,20.35
2019-05-01T13:52:25.338Z,19.70
2019-05-01T13:54:53.591Z,20.13
2019-05-01T13:57:21.880Z,20.33
2019-05-01T13:59:50.120Z,20.49
2019-05-01T14:02:18.388Z,19.51
2019-05-01T14:04:46.638Z,19.29
2019-05-01T14:07:16.825Z,19.05
2019-05-01T14:09:45.125Z,19.45
2019-05-01T14:12:13.398Z,19.63
2019-05-01T14:14:41.647Z,20.66
2019-05-01T14:17:09.926Z,21.79
2019-05-01T14:19:39.822Z,22.17
2019-05-01T14:22:18.568Z,21.31
2019-05-01T14:24:54.416Z,21.64
2019-05-01T14:27:22.693Z,21.27
2019-05-01T14:29:50.954Z,21.51
2019-05-01T14:32:19.229Z,22.03
2019-05-01T14:34:47.486Z,22.13
2019-05-01T14:37:28.875Z,22.10
2019-05-01T14:39:45.745Z,21.55
2019-05-01T14:42:14.028Z,20.25
2019-05-01T14:44:42.354Z,19.88
2019-05-01T14:47:10.621Z,19.68
2019-05-01T14:49:38.893Z,20.80
2019-05-01T14:52:07.144Z,21.71
2019-05-01T14:54:35.413Z,22.07
2019-05-01T14:57:03.664Z,22.30
2019-05-01T14:59:32.116Z,22.65
2019-05-01T15:02:00.380Z,22.90
2019-05-01T15:04:28.672Z,23.04
2019-05-01T15:06:56.919Z,22.77
2019-05-01T15:09:25.207Z,22.49
2019-05-01T15:11:53.543Z,22.47
2019-05-01T15:14:25.887Z,22.41
2019-05-01T15:16:58.621Z,21.13
2019-05-01T15:19:28.533Z,21.09
2019-05-01T15:21:56.788Z,20.76
2019-05-01T15:24:25.063Z,20.11
2019-05-01T15:26:53.343Z,19.90
2019-05-01T15:29:21.615Z,19.98
2019-05-01T15:31:49.882Z,19.70
2019-05-01T15:34:18.132Z,19.12
2019-05-01T15:36:46.381Z,19.22
2019-05-01T15:39:16.299Z,19.66
2019-05-01T15:42:02.224Z,20.21
2019-05-01T15:44:32.202Z,20.15
2019-05-01T15:47:00.452Z,20.42
2019-05-01T15:49:28.727Z,20.24
2019-05-01T15:51:56.990Z,20.06
2019-05-01T15:54:25.292Z,20.20
2019-05-01T15:56:53.545Z,20.11
2019-05-01T15:59:21.816Z,19.99
2019-05-01T16:01:50.066Z,19.93
2019-05-01T16:04:18.348Z,19.91
2019-05-01T16:06:46.601Z,20.48
2019-05-01T16:09:14.944Z,20.52
2019-05-01T16:11:47.522Z,20.47
2019-05-01T16:14:15.798Z,20.28
2019-05-01T16:16:44.046Z,19.78
2019-05-01T16:19:12.337Z,19.96
2019-05-01T16:21:40.581Z,19.81
2019-05-01T16:24:08.853Z,19.32
2019-05-01T16:26:37.103Z,19.44
2019-05-01T16:29:05.394Z,19.75
2019-05-01T16:31:33.642Z,20.04
2019-05-01T16:34:01.892Z,20.40
2019-05-01T16:36:30.264Z,20.48
2019-05-01T16:39:02.629Z,20.49
2019-05-01T16:41:32.077Z,20.66
2019-05-01T16:44:00.322Z,20.96
2019-05-01T16:46:28.611Z,20.97
2019-05-01T16:48:56.862Z,20.23
2019-05-01T16:51:25.142Z,19.63
2019-05-01T16:53:53.401Z,19.34
2019-05-01T16:56:21.671Z,19.39
2019-05-01T16:58:49.934Z,19.41
2019-05-01T17:01:37.711Z,19.49
2019-05-01T17:04:07.613Z,19.78
2019-05-01T17:06:47.215Z,19.56
2019-05-01T17:09:25.805Z,19.55
2019-05-01T17:11:54.088Z,19.59
2019-05-01T17:14:22.710Z,19.61
2019-05-01T17:16:51.836Z,19.63
2019-05-01T17:19:20.086Z,19.44
2019-05-01T17:21:48.367Z,19.06
2019-05-01T17:24:16.618Z,19.04
2019-05-01T17:26:44.894Z,18.96
2019-05-01T17:29:13.151Z,19.00
2019-05-01T17:31:41.430Z,18.82
2019-05-01T17:34:09.888Z,18.74
2019-05-01T17:36:38.147Z,18.71
2019-05-01T17:39:06.410Z,18.71
2019-05-01T17:41:34.682Z,18.78
2019-05-01T17:44:02.940Z,18.69
2019-05-01T17:46:31.221Z,18.64
2019-05-01T17:48:59.468Z,18.54
2019-05-01T17:51:27.760Z,18.35
2019-05-01T17:53:56.017Z,18.13
2019-05-01T17:56:28.316Z,17.98
2019-05-01T17:58:54.785Z,17.72
2019-05-01T18:01:27.642Z,17.38
2019-05-01T18:03:57.076Z,17.07
2019-05-01T18:06:29.879Z,16.88
2019-05-01T18:09:03.156Z,16.71
2019-05-01T18:11:28.134Z,16.59
2019-05-01T18:13:56.383Z,16.39
2019-05-01T18:16:24.777Z,16.20
2019-05-01T18:18:53.039Z,16.03
2019-05-01T18:21:21.491Z,15.78
2019-05-01T18:24:07.305Z,15.64
2019-05-01T18:26:44.915Z,15.54
2019-05-01T18:29:14.877Z,15.46
2019-05-01T18:31:43.230Z,15.35
2019-05-01T18:34:11.521Z,15.24
2019-05-01T18:36:46.951Z,15.08
2019-05-01T18:39:27.128Z,14.87
2019-05-01T18:42:02.614Z,14.66
2019-05-01T18:44:30.862Z,14.50
2019-05-01T18:46:59.204Z,14.35
2019-05-01T18:49:27.456Z,14.18
2019-05-01T18:51:55.710Z,14.09
2019-05-01T18:54:23.995Z,13.99
2019-05-01T18:56:54.556Z,13.97
2019-05-01T18:59:22.246Z,13.93
2019-05-01T19:01:50.669Z,13.90
2019-05-01T19:04:23.558Z,13.85
2019-05-01T19:06:48.916Z,13.69
2019-05-01T19:09:29.323Z,13.61
2019-05-01T19:11:47.184Z,13.54
2019-05-01T19:14:15.462Z,13.47
2019-05-01T19:16:45.159Z,13.30
2019-05-01T19:19:13.900Z,13.20
2019-05-01T19:21:46.526Z,13.10
2019-05-01T19:24:12.690Z,13.02
2019-05-01T19:26:42.630Z,12.94
2019-05-01T19:29:11.163Z,12.91
2019-05-01T19:31:39.370Z,12.85
2019-05-01T19:34:07.648Z,12.74
2019-05-01T19:36:35.917Z,12.63
2019-05-01T19:39:06.940Z,12.62
2019-05-01T19:41:35.882Z,12.60
2019-05-01T19:44:04.200Z,12.46
2019-05-01T19:46:32.462Z,12.43
2019-05-01T19:49:00.746Z,12.31
2019-05-01T19:51:29.062Z,12.16
2019-05-01T19:53:57.415Z,12.08
2019-05-01T19:56:25.679Z,11.98
2019-05-01T19:58:54.060Z,11.94
2019-05-01T20:01:22.394Z,11.87
2019-05-01T20:03:50.687Z,11.63
2019-05-01T20:06:18.938Z,11.47
2019-05-01T20:08:47.238Z,11.45
2019-05-01T20:11:15.494Z,11.21
2019-05-01T20:13:43.786Z,11.09
2019-05-01T20:16:12.832Z,10.99
2019-05-01T20:18:41.122Z,10.46
2019-05-01T20:21:09.372Z,10.39
2019-05-01T20:23:37.715Z,10.18
2019-05-01T20:26:08.945Z,9.96
2019-05-01T20:28:37.488Z,9.85
2019-05-01T20:31:05.958Z,9.94
2019-05-01T20:33:39.162Z,9.62
2019-05-01T20:36:05.358Z,9.45
2019-05-01T20:38:34.191Z,9.15
2019-05-01T20:41:02.467Z,9.09
2019-05-01T20:43:33.419Z,9.13
2019-05-01T20:46:00.783Z,9.29
2019-05-01T20:48:29.037Z,9.40
2019-05-01T20:50:57.334Z,9.25
2019-05-01T20:53:25.593Z,8.95
2019-05-01T20:55:58.239Z,8.87
2019-05-01T20:58:26.553Z,8.94
2019-05-01T21:00:56.474Z,9.01
2019-05-01T21:03:24.739Z,8.98
2019-05-01T21:06:13.019Z,9.07
2019-05-01T21:08:57.930Z,9.12
2019-05-01T21:11:36.752Z,9.13
2019-05-01T21:14:19.766Z,9.04
2019-05-01T21:16:37.903Z,8.83
2019-05-01T21:19:05.162Z,8.80
2019-05-01T21:21:34.382Z,8.75
2019-05-01T21:24:03.669Z,8.73
2019-05-01T21:26:33.582Z,8.70
2019-05-01T21:29:03.944Z,8.73
2019-05-01T21:31:33.982Z,8.76
2019-05-01T21:34:04.029Z,8.84
2019-05-01T21:36:31.922Z,8.67
2019-05-01T21:39:00.170Z,8.62
2019-05-01T21:41:28.450Z,8.68
2019-05-01T21:43:56.705Z,8.58
2019-05-01T21:46:24.997Z,8.46
2019-05-01T21:48:53.617Z,8.37
2019-05-01T21:51:22.762Z,8.27
2019-05-01T21:53:52.820Z,8.21
2019-05-01T21:56:21.012Z,8.25
2019-05-01T21:58:49.262Z,8.17
2019-05-01T22:01:17.617Z,8.18
2019-05-01T22:03:45.873Z,8.25
2019-05-01T22:06:15.411Z,8.35
2019-05-01T22:08:44.126Z,8.31
2019-05-01T22:11:12.399Z,8.32
2019-05-01T22:13:40.651Z,8.43
2019-05-01T22:16:18.442Z,8.38
2019-05-01T22:18:50.816Z,8.36
2019-05-01T22:21:26.954Z,8.27
2019-05-01T22:23:56.866Z,8.20
2019-05-01T22:26:26.403Z,8.20
2019-05-01T22:28:56.290Z,8.22
2019-05-01T22:31:41.901Z,8.15
2019-05-01T22:34:11.788Z,8.17
2019-05-01T22:36:40.059Z,8.14
2019-05-01T22:39:08.384Z,8.04
2019-05-01T22:41:36.681Z,7.98
2019-05-01T22:44:05.008Z,7.83
2019-05-01T22:46:33.897Z,7.73
2019-05-01T22:49:03.272Z,7.69
2019-05-01T22:51:31.545Z,7.54
2019-05-01T22:53:59.810Z,7.52
2019-05-01T22:56:28.162Z,7.39
2019-05-01T22:58:56.415Z,7.33
2019-05-01T23:01:25.538Z,7.33
2019-05-01T23:03:55.460Z,7.29
2019-05-01T23:06:23.706Z,7.23
2019-05-01T23:08:52.008Z,7.28
2019-05-01T23:11:20.825Z,7.38
2019-05-01T23:13:49.101Z,7.35
2019-05-01T23:16:19.123Z,7.45
2019-05-01T23:18:51.960Z,7.23
2019-05-01T23:21:17.380Z,7.14
2019-05-01T23:23:45.648Z,7.18
2019-05-01T23:26:16.846Z,7.20
2019-05-01T23:28:43.898Z,7.24
2019-05-01T23:31:12.222Z,7.18
2019-05-01T23:33:40.502Z,7.14
2019-05-01T23:36:22.674Z,7.14
2019-05-01T23:38:39.698Z,7.22
2019-05-01T23:41:07.945Z,7.25
2019-05-01T23:43:36.238Z,7.24
2019-05-01T23:46:04.654Z,7.24
2019-05-01T23:48:32.923Z,7.19
2019-05-01T23:51:01.169Z,7.13
2019-05-01T23:53:29.446Z,7.04
2019-05-01T23:56:00.073Z,7.05
2019-05-01T23:58:27.687Z,6.87
